Uppsala, Sverige

12:03 PM CET on Mars 03, 2015 (GMT +0100)
Arlanda | Change Station
CLOSE
Current Station
Airport
Location: Stockholm Arlanda,
Elevation: 89 ft
Nearby Weather Stations

Elev 89 ft 59.63 °N, 17.95 °E | Updated 13 minutes ago

Drizzle
Duggregn
37 °F
Feels Like 35 °F
N
4
Vind Växlande Vind from Ostlig

Idag
High -- | Low -- °F
--% Chance of Precip.
Yesterday
High -- | Low -- °F
Precip. -- tum
6:43 AM 5:21 PM
Andra kvarteret, 95% visible
Lufttryck 29.47 tum
Sikt 6.2 miles
Molnigt Mestadels molnigt 700 ft
Vindavkylning 35 °F
Daggpunkt 36 °F
Luftfuktighet 93%
Rainfall 0.00 tum
Snow Depth Not available.
UV 1 out of 12
Pollen Not available.
Air Quality Not available.
Flu Activity Not available.
METAR ESSA 031050Z 10003KT 9999 DZ BKN007 03/02 Q0998 R01L/19//95 R08/19//95 R01R/19//95 TEMPO BKN004

More Conditions Fewer Conditions

Lufttryck 29.47 tum
Sikt 6.2 miles
Molnigt Mestadels molnigt 700 ft
Vindavkylning 35 °F
Daggpunkt 36 °F
Luftfuktighet 93%
Rainfall 0.00 tum
Snow Depth Not available.
UV 1 out of 12
Pollen Not available.
Air Quality Not available.
Flu Activity Not available.
METAR ESSA 031050Z 10003KT 9999 DZ BKN007 03/02 Q0998 R01L/19//95 R08/19//95 R01R/19//95 TEMPO BKN004

More Conditions Fewer Conditions

10-Day Weather Forecast

Almanac

Astronomi

Mar. 03, 2015 Rise Set
Actual Time
Civil Twilight
Nautical Twilight
Astronomical Twilight
Månen
Length Of Visible Light
Dagens längd
Tomorrow will be .
, % of the Moon is Illuminated

Today's Extremes

Country Highs Country Lows

Community

WunderPhotos

Upload Photos

1,802,087 photos uploaded!

WunderBlogs® & News

Nearby

Air Quality

  Air Quality AQ Index Pollutant
Not available.

Snödjup

Station Depth Elevation

Earthquake Activity

Stad Distance Mag. Time & Date
Minimum magnitude displayed is 2.5.

Coastal Water Temperatures

Plats Temperatur

Nearby Weather Stations